sensor_id;sensor_type;location;lat;lon;timestamp;P1;durP1;ratioP1;P2;durP2;ratioP2
10667;SDS011;5382;42.136;24.796;2023-04-24T00:01:55;6.90;;;4.57;;
10667;SDS011;5382;42.136;24.796;2023-04-24T00:04:23;7.80;;;4.57;;
10667;SDS011;5382;42.136;24.796;2023-04-24T00:06:51;6.68;;;4.43;;
10667;SDS011;5382;42.136;24.796;2023-04-24T00:09:19;8.30;;;4.30;;
10667;SDS011;5382;42.136;24.796;2023-04-24T00:11:46;9.77;;;5.15;;
10667;SDS011;5382;42.136;24.796;2023-04-24T00:14:13;7.32;;;4.72;;
10667;SDS011;5382;42.136;24.796;2023-04-24T00:16:41;9.55;;;4.32;;
10667;SDS011;5382;42.136;24.796;2023-04-24T00:19:08;8.43;;;4.57;;
10667;SDS011;5382;42.136;24.796;2023-04-24T00:21:37;6.32;;;4.43;;
10667;SDS011;5382;42.136;24.796;2023-04-24T00:24:03;7.45;;;5.13;;
10667;SDS011;5382;42.136;24.796;2023-04-24T00:26:31;6.43;;;4.75;;
10667;SDS011;5382;42.136;24.796;2023-04-24T00:28:57;5.88;;;5.25;;
10667;SDS011;5382;42.136;24.796;2023-04-24T00:31:24;5.68;;;5.03;;
10667;SDS011;5382;42.136;24.796;2023-04-24T00:33:52;11.13;;;5.15;;
10667;SDS011;5382;42.136;24.796;2023-04-24T00:36:19;7.65;;;4.45;;
10667;SDS011;5382;42.136;24.796;2023-04-24T00:38:46;7.40;;;4.05;;
10667;SDS011;5382;42.136;24.796;2023-04-24T00:41:13;12.35;;;4.45;;
10667;SDS011;5382;42.136;24.796;2023-04-24T00:43:40;6.35;;;4.75;;
10667;SDS011;5382;42.136;24.796;2023-04-24T00:46:06;8.90;;;4.82;;
10667;SDS011;5382;42.136;24.796;2023-04-24T00:48:34;7.85;;;4.93;;
10667;SDS011;5382;42.136;24.796;2023-04-24T00:51:02;9.00;;;4.55;;
10667;SDS011;5382;42.136;24.796;2023-04-24T00:53:29;8.23;;;5.57;;
10667;SDS011;5382;42.136;24.796;2023-04-24T00:55:56;5.00;;;4.40;;
10667;SDS011;5382;42.136;24.796;2023-04-24T00:58:23;5.55;;;4.22;;
10667;SDS011;5382;42.136;24.796;2023-04-24T01:00:50;7.03;;;4.80;;
10667;SDS011;5382;42.136;24.796;2023-04-24T01:03:19;8.63;;;4.97;;
10667;SDS011;5382;42.136;24.796;2023-04-24T01:05:47;7.47;;;5.68;;
10667;SDS011;5382;42.136;24.796;2023-04-24T01:08:17;7.80;;;5.28;;
10667;SDS011;5382;42.136;24.796;2023-04-24T01:10:45;7.90;;;5.25;;
10667;SDS011;5382;42.136;24.796;2023-04-24T01:13:14;6.32;;;4.70;;
10667;SDS011;5382;42.136;24.796;2023-04-24T01:15:41;6.57;;;4.97;;
10667;SDS011;5382;42.136;24.796;2023-04-24T01:18:07;6.55;;;5.60;;
10667;SDS011;5382;42.136;24.796;2023-04-24T01:20:35;22.30;;;8.95;;
10667;SDS011;5382;42.136;24.796;2023-04-24T01:23:06;31.90;;;14.20;;
10667;SDS011;5382;42.136;24.796;2023-04-24T01:25:33;31.33;;;14.57;;
10667;SDS011;5382;42.136;24.796;2023-04-24T01:28:00;36.72;;;14.82;;
10667;SDS011;5382;42.136;24.796;2023-04-24T01:30:27;37.85;;;14.32;;
10667;SDS011;5382;42.136;24.796;2023-04-24T01:32:55;25.50;;;11.43;;
10667;SDS011;5382;42.136;24.796;2023-04-24T01:35:22;16.40;;;9.10;;
10667;SDS011;5382;42.136;24.796;2023-04-24T01:37:49;17.10;;;9.50;;
10667;SDS011;5382;42.136;24.796;2023-04-24T01:40:17;20.05;;;9.30;;
10667;SDS011;5382;42.136;24.796;2023-04-24T01:42:44;15.48;;;8.60;;
10667;SDS011;5382;42.136;24.796;2023-04-24T01:45:12;15.82;;;8.88;;
10667;SDS011;5382;42.136;24.796;2023-04-24T01:47:39;13.00;;;8.82;;
10667;SDS011;5382;42.136;24.796;2023-04-24T01:50:06;10.98;;;7.53;;
10667;SDS011;5382;42.136;24.796;2023-04-24T01:52:34;12.88;;;7.22;;
10667;SDS011;5382;42.136;24.796;2023-04-24T01:55:01;8.15;;;7.10;;
10667;SDS011;5382;42.136;24.796;2023-04-24T01:57:30;9.05;;;6.80;;
10667;SDS011;5382;42.136;24.796;2023-04-24T01:59:57;8.55;;;6.20;;
10667;SDS011;5382;42.136;24.796;2023-04-24T02:02:24;10.85;;;6.13;;
10667;SDS011;5382;42.136;24.796;2023-04-24T02:04:52;12.15;;;8.65;;
10667;SDS011;5382;42.136;24.796;2023-04-24T02:07:19;21.60;;;8.75;;
10667;SDS011;5382;42.136;24.796;2023-04-24T02:09:47;12.07;;;7.35;;
10667;SDS011;5382;42.136;24.796;2023-04-24T02:12:14;12.98;;;9.50;;
10667;SDS011;5382;42.136;24.796;2023-04-24T02:14:43;12.93;;;10.15;;
10667;SDS011;5382;42.136;24.796;2023-04-24T02:17:10;15.77;;;10.63;;
10667;SDS011;5382;42.136;24.796;2023-04-24T02:19:37;16.08;;;10.07;;
10667;SDS011;5382;42.136;24.796;2023-04-24T02:22:04;14.20;;;7.75;;
10667;SDS011;5382;42.136;24.796;2023-04-24T02:24:31;11.63;;;8.32;;
10667;SDS011;5382;42.136;24.796;2023-04-24T02:26:57;10.18;;;6.82;;
10667;SDS011;5382;42.136;24.796;2023-04-24T02:29:25;12.82;;;7.40;;
10667;SDS011;5382;42.136;24.796;2023-04-24T02:31:53;14.25;;;8.00;;
10667;SDS011;5382;42.136;24.796;2023-04-24T02:34:20;13.45;;;7.22;;
10667;SDS011;5382;42.136;24.796;2023-04-24T02:36:48;10.90;;;6.35;;
10667;SDS011;5382;42.136;24.796;2023-04-24T02:39:15;13.73;;;6.82;;
10667;SDS011;5382;42.136;24.796;2023-04-24T02:41:42;10.75;;;6.43;;
10667;SDS011;5382;42.136;24.796;2023-04-24T02:44:09;13.02;;;6.25;;
10667;SDS011;5382;42.136;24.796;2023-04-24T02:46:36;9.93;;;6.55;;
10667;SDS011;5382;42.136;24.796;2023-04-24T02:49:04;11.15;;;6.55;;
10667;SDS011;5382;42.136;24.796;2023-04-24T02:51:31;11.32;;;6.32;;
10667;SDS011;5382;42.136;24.796;2023-04-24T02:53:58;7.32;;;5.63;;
10667;SDS011;5382;42.136;24.796;2023-04-24T02:56:24;9.45;;;6.85;;
10667;SDS011;5382;42.136;24.796;2023-04-24T02:58:51;9.98;;;6.25;;
10667;SDS011;5382;42.136;24.796;2023-04-24T03:01:18;9.85;;;7.47;;
10667;SDS011;5382;42.136;24.796;2023-04-24T03:03:45;15.07;;;6.10;;
10667;SDS011;5382;42.136;24.796;2023-04-24T03:06:13;8.60;;;6.07;;
10667;SDS011;5382;42.136;24.796;2023-04-24T03:08:40;10.38;;;6.70;;
10667;SDS011;5382;42.136;24.796;2023-04-24T03:11:07;9.65;;;7.22;;
10667;SDS011;5382;42.136;24.796;2023-04-24T03:13:34;9.18;;;6.07;;
10667;SDS011;5382;42.136;24.796;2023-04-24T03:16:01;11.48;;;6.95;;
10667;SDS011;5382;42.136;24.796;2023-04-24T03:18:28;9.82;;;6.68;;
10667;SDS011;5382;42.136;24.796;2023-04-24T03:20:55;12.48;;;8.43;;
10667;SDS011;5382;42.136;24.796;2023-04-24T03:23:24;14.23;;;7.22;;
10667;SDS011;5382;42.136;24.796;2023-04-24T03:25:51;10.38;;;7.50;;
10667;SDS011;5382;42.136;24.796;2023-04-24T03:28:17;12.60;;;7.63;;
10667;SDS011;5382;42.136;24.796;2023-04-24T03:30:44;13.80;;;7.75;;
10667;SDS011;5382;42.136;24.796;2023-04-24T03:33:11;13.40;;;8.77;;
10667;SDS011;5382;42.136;24.796;2023-04-24T03:35:38;12.40;;;8.07;;
10667;SDS011;5382;42.136;24.796;2023-04-24T03:38:05;10.88;;;8.05;;
10667;SDS011;5382;42.136;24.796;2023-04-24T03:40:33;15.82;;;7.95;;
10667;SDS011;5382;42.136;24.796;2023-04-24T03:43:00;14.98;;;8.20;;
10667;SDS011;5382;42.136;24.796;2023-04-24T03:45:27;13.95;;;7.90;;
10667;SDS011;5382;42.136;24.796;2023-04-24T03:47:54;14.13;;;8.13;;
10667;SDS011;5382;42.136;24.796;2023-04-24T03:50:21;12.05;;;7.50;;
10667;SDS011;5382;42.136;24.796;2023-04-24T03:52:48;13.38;;;7.45;;
10667;SDS011;5382;42.136;24.796;2023-04-24T03:55:14;18.38;;;8.25;;
10667;SDS011;5382;42.136;24.796;2023-04-24T03:57:42;14.63;;;8.20;;
10667;SDS011;5382;42.136;24.796;2023-04-24T04:00:10;16.10;;;8.13;;
10667;SDS011;5382;42.136;24.796;2023-04-24T04:02:38;12.88;;;8.27;;
10667;SDS011;5382;42.136;24.796;2023-04-24T04:05:04;13.75;;;9.98;;
10667;SDS011;5382;42.136;24.796;2023-04-24T04:07:31;13.70;;;9.80;;
10667;SDS011;5382;42.136;24.796;2023-04-24T04:09:58;20.30;;;10.95;;
10667;SDS011;5382;42.136;24.796;2023-04-24T04:12:25;14.48;;;8.30;;
10667;SDS011;5382;42.136;24.796;2023-04-24T04:14:53;12.10;;;9.77;;
10667;SDS011;5382;42.136;24.796;2023-04-24T04:17:20;17.45;;;8.48;;
10667;SDS011;5382;42.136;24.796;2023-04-24T04:19:46;16.67;;;7.93;;
10667;SDS011;5382;42.136;24.796;2023-04-24T04:22:13;15.77;;;8.13;;
10667;SDS011;5382;42.136;24.796;2023-04-24T04:24:40;12.23;;;8.82;;
10667;SDS011;5382;42.136;24.796;2023-04-24T04:27:08;13.95;;;8.90;;
10667;SDS011;5382;42.136;24.796;2023-04-24T04:29:34;12.73;;;8.30;;
10667;SDS011;5382;42.136;24.796;2023-04-24T04:32:02;15.98;;;7.93;;
10667;SDS011;5382;42.136;24.796;2023-04-24T04:34:29;22.75;;;8.02;;
10667;SDS011;5382;42.136;24.796;2023-04-24T04:36:56;12.85;;;7.45;;
10667;SDS011;5382;42.136;24.796;2023-04-24T04:39:27;10.98;;;7.97;;
10667;SDS011;5382;42.136;24.796;2023-04-24T04:41:55;13.15;;;7.47;;
10667;SDS011;5382;42.136;24.796;2023-04-24T04:44:21;16.38;;;8.85;;
10667;SDS011;5382;42.136;24.796;2023-04-24T04:46:48;15.25;;;9.27;;
10667;SDS011;5382;42.136;24.796;2023-04-24T04:49:19;15.95;;;8.85;;
10667;SDS011;5382;42.136;24.796;2023-04-24T04:51:46;15.93;;;8.20;;
10667;SDS011;5382;42.136;24.796;2023-04-24T04:54:13;12.15;;;7.13;;
10667;SDS011;5382;42.136;24.796;2023-04-24T04:56:40;12.90;;;6.90;;
10667;SDS011;5382;42.136;24.796;2023-04-24T04:59:07;13.80;;;7.55;;
10667;SDS011;5382;42.136;24.796;2023-04-24T05:01:34;11.43;;;6.60;;
10667;SDS011;5382;42.136;24.796;2023-04-24T05:04:01;16.98;;;6.95;;
10667;SDS011;5382;42.136;24.796;2023-04-24T05:06:29;10.38;;;7.13;;
10667;SDS011;5382;42.136;24.796;2023-04-24T05:08:56;15.77;;;7.75;;
10667;SDS011;5382;42.136;24.796;2023-04-24T05:11:23;14.30;;;8.57;;
10667;SDS011;5382;42.136;24.796;2023-04-24T05:13:50;14.40;;;8.07;;
10667;SDS011;5382;42.136;24.796;2023-04-24T05:16:17;17.45;;;8.18;;
10667;SDS011;5382;42.136;24.796;2023-04-24T05:18:44;13.60;;;8.38;;
10667;SDS011;5382;42.136;24.796;2023-04-24T05:21:10;13.48;;;7.68;;
10667;SDS011;5382;42.136;24.796;2023-04-24T05:23:39;7.63;;;6.43;;
10667;SDS011;5382;42.136;24.796;2023-04-24T05:26:06;9.52;;;6.70;;
10667;SDS011;5382;42.136;24.796;2023-04-24T05:28:33;14.40;;;8.43;;
10667;SDS011;5382;42.136;24.796;2023-04-24T05:31:01;13.88;;;7.10;;
10667;SDS011;5382;42.136;24.796;2023-04-24T05:33:28;8.02;;;7.05;;
10667;SDS011;5382;42.136;24.796;2023-04-24T05:35:55;8.10;;;7.05;;
10667;SDS011;5382;42.136;24.796;2023-04-24T05:38:22;6.85;;;5.72;;
10667;SDS011;5382;42.136;24.796;2023-04-24T05:40:50;10.98;;;6.68;;
10667;SDS011;5382;42.136;24.796;2023-04-24T05:43:17;9.63;;;7.00;;
10667;SDS011;5382;42.136;24.796;2023-04-24T05:45:44;6.93;;;5.15;;
10667;SDS011;5382;42.136;24.796;2023-04-24T05:48:11;10.27;;;6.93;;
10667;SDS011;5382;42.136;24.796;2023-04-24T05:50:38;9.55;;;6.43;;
10667;SDS011;5382;42.136;24.796;2023-04-24T05:53:05;9.50;;;6.75;;
10667;SDS011;5382;42.136;24.796;2023-04-24T05:55:32;9.20;;;6.03;;
10667;SDS011;5382;42.136;24.796;2023-04-24T05:58:01;12.07;;;8.27;;
10667;SDS011;5382;42.136;24.796;2023-04-24T06:00:27;8.35;;;6.28;;
10667;SDS011;5382;42.136;24.796;2023-04-24T06:02:54;12.55;;;8.30;;
10667;SDS011;5382;42.136;24.796;2023-04-24T06:05:21;13.63;;;8.00;;
10667;SDS011;5382;42.136;24.796;2023-04-24T06:07:48;9.88;;;7.22;;
10667;SDS011;5382;42.136;24.796;2023-04-24T06:10:15;9.15;;;6.47;;
10667;SDS011;5382;42.136;24.796;2023-04-24T06:12:42;12.35;;;4.72;;
10667;SDS011;5382;42.136;24.796;2023-04-24T06:15:10;16.17;;;6.22;;
10667;SDS011;5382;42.136;24.796;2023-04-24T06:17:37;10.45;;;6.35;;
10667;SDS011;5382;42.136;24.796;2023-04-24T06:20:05;12.18;;;6.68;;
10667;SDS011;5382;42.136;24.796;2023-04-24T06:22:33;9.52;;;5.60;;
10667;SDS011;5382;42.136;24.796;2023-04-24T06:25:00;11.45;;;7.10;;
10667;SDS011;5382;42.136;24.796;2023-04-24T06:27:27;11.68;;;6.55;;
10667;SDS011;5382;42.136;24.796;2023-04-24T06:29:54;9.27;;;5.32;;
10667;SDS011;5382;42.136;24.796;2023-04-24T06:32:22;8.98;;;6.97;;
10667;SDS011;5382;42.136;24.796;2023-04-24T06:34:50;8.48;;;6.93;;
10667;SDS011;5382;42.136;24.796;2023-04-24T06:37:18;10.55;;;7.05;;
10667;SDS011;5382;42.136;24.796;2023-04-24T06:39:45;10.68;;;5.65;;
10667;SDS011;5382;42.136;24.796;2023-04-24T06:42:12;9.38;;;6.07;;
10667;SDS011;5382;42.136;24.796;2023-04-24T06:44:39;7.97;;;5.80;;
10667;SDS011;5382;42.136;24.796;2023-04-24T06:47:06;8.32;;;6.53;;
10667;SDS011;5382;42.136;24.796;2023-04-24T06:49:36;7.43;;;6.40;;
10667;SDS011;5382;42.136;24.796;2023-04-24T06:52:03;9.27;;;7.00;;
10667;SDS011;5382;42.136;24.796;2023-04-24T06:54:30;9.48;;;7.55;;
10667;SDS011;5382;42.136;24.796;2023-04-24T06:56:57;10.55;;;7.15;;
10667;SDS011;5382;42.136;24.796;2023-04-24T06:59:25;11.48;;;7.38;;
10667;SDS011;5382;42.136;24.796;2023-04-24T07:01:52;9.77;;;7.93;;
10667;SDS011;5382;42.136;24.796;2023-04-24T07:04:19;10.35;;;7.18;;
10667;SDS011;5382;42.136;24.796;2023-04-24T07:06:47;10.70;;;7.55;;
10667;SDS011;5382;42.136;24.796;2023-04-24T07:09:16;13.05;;;7.70;;
10667;SDS011;5382;42.136;24.796;2023-04-24T07:11:43;9.50;;;7.55;;
10667;SDS011;5382;42.136;24.796;2023-04-24T07:14:10;9.52;;;7.30;;
10667;SDS011;5382;42.136;24.796;2023-04-24T07:16:37;9.60;;;6.97;;
10667;SDS011;5382;42.136;24.796;2023-04-24T07:19:04;8.43;;;7.30;;
10667;SDS011;5382;42.136;24.796;2023-04-24T07:21:30;10.68;;;6.93;;
10667;SDS011;5382;42.136;24.796;2023-04-24T07:23:59;8.68;;;6.80;;
10667;SDS011;5382;42.136;24.796;2023-04-24T07:26:26;16.45;;;7.03;;
10667;SDS011;5382;42.136;24.796;2023-04-24T07:28:53;8.40;;;6.57;;
10667;SDS011;5382;42.136;24.796;2023-04-24T07:31:20;11.05;;;7.20;;
10667;SDS011;5382;42.136;24.796;2023-04-24T07:33:46;9.30;;;6.78;;
10667;SDS011;5382;42.136;24.796;2023-04-24T07:36:13;8.15;;;6.38;;
10667;SDS011;5382;42.136;24.796;2023-04-24T07:38:44;6.82;;;5.72;;
10667;SDS011;5382;42.136;24.796;2023-04-24T07:41:12;7.85;;;5.65;;
10667;SDS011;5382;42.136;24.796;2023-04-24T07:43:39;6.90;;;6.07;;
10667;SDS011;5382;42.136;24.796;2023-04-24T07:46:06;8.02;;;6.30;;
10667;SDS011;5382;42.136;24.796;2023-04-24T07:48:33;7.53;;;6.68;;
10667;SDS011;5382;42.136;24.796;2023-04-24T07:50:59;7.85;;;6.38;;
10667;SDS011;5382;42.136;24.796;2023-04-24T07:53:26;8.93;;;6.35;;
10667;SDS011;5382;42.136;24.796;2023-04-24T07:55:53;8.02;;;6.22;;
10667;SDS011;5382;42.136;24.796;2023-04-24T07:58:22;10.80;;;6.75;;
10667;SDS011;5382;42.136;24.796;2023-04-24T08:00:49;12.40;;;5.95;;
10667;SDS011;5382;42.136;24.796;2023-04-24T08:03:16;7.95;;;5.90;;
10667;SDS011;5382;42.136;24.796;2023-04-24T08:05:44;11.70;;;6.88;;
10667;SDS011;5382;42.136;24.796;2023-04-24T08:08:11;8.13;;;6.43;;
10667;SDS011;5382;42.136;24.796;2023-04-24T08:10:38;7.40;;;6.72;;
10667;SDS011;5382;42.136;24.796;2023-04-24T08:13:05;7.03;;;5.97;;
10667;SDS011;5382;42.136;24.796;2023-04-24T08:15:33;9.68;;;6.82;;
10667;SDS011;5382;42.136;24.796;2023-04-24T08:18:00;7.78;;;6.10;;
10667;SDS011;5382;42.136;24.796;2023-04-24T08:20:27;8.93;;;6.78;;
10667;SDS011;5382;42.136;24.796;2023-04-24T08:22:54;8.38;;;5.93;;
10667;SDS011;5382;42.136;24.796;2023-04-24T08:25:21;9.55;;;6.40;;
10667;SDS011;5382;42.136;24.796;2023-04-24T08:27:49;8.55;;;5.75;;
10667;SDS011;5382;42.136;24.796;2023-04-24T08:30:16;8.95;;;6.40;;
10667;SDS011;5382;42.136;24.796;2023-04-24T08:32:45;7.70;;;6.63;;
10667;SDS011;5382;42.136;24.796;2023-04-24T08:35:12;6.95;;;6.35;;
10667;SDS011;5382;42.136;24.796;2023-04-24T08:37:39;7.63;;;6.35;;
10667;SDS011;5382;42.136;24.796;2023-04-24T08:40:06;7.10;;;6.30;;
10667;SDS011;5382;42.136;24.796;2023-04-24T08:42:38;11.90;;;6.22;;
10667;SDS011;5382;42.136;24.796;2023-04-24T08:45:06;10.60;;;6.85;;
10667;SDS011;5382;42.136;24.796;2023-04-24T08:47:34;9.00;;;6.03;;
10667;SDS011;5382;42.136;24.796;2023-04-24T08:50:03;11.35;;;6.10;;
10667;SDS011;5382;42.136;24.796;2023-04-24T08:52:31;7.53;;;5.95;;
10667;SDS011;5382;42.136;24.796;2023-04-24T08:54:59;6.53;;;5.82;;
10667;SDS011;5382;42.136;24.796;2023-04-24T08:57:27;10.35;;;6.32;;
10667;SDS011;5382;42.136;24.796;2023-04-24T08:59:54;6.72;;;5.90;;
10667;SDS011;5382;42.136;24.796;2023-04-24T09:02:24;9.93;;;5.88;;
10667;SDS011;5382;42.136;24.796;2023-04-24T09:04:52;9.65;;;5.40;;
10667;SDS011;5382;42.136;24.796;2023-04-24T09:07:20;7.90;;;5.93;;
10667;SDS011;5382;42.136;24.796;2023-04-24T09:09:50;8.13;;;5.93;;
10667;SDS011;5382;42.136;24.796;2023-04-24T09:12:18;9.23;;;6.75;;
10667;SDS011;5382;42.136;24.796;2023-04-24T09:14:45;8.15;;;5.60;;
10667;SDS011;5382;42.136;24.796;2023-04-24T09:17:12;6.70;;;5.00;;
10667;SDS011;5382;42.136;24.796;2023-04-24T09:19:39;6.93;;;5.90;;
10667;SDS011;5382;42.136;24.796;2023-04-24T09:22:07;8.05;;;5.40;;
10667;SDS011;5382;42.136;24.796;2023-04-24T09:24:37;8.55;;;5.65;;
10667;SDS011;5382;42.136;24.796;2023-04-24T09:27:05;7.13;;;5.45;;
10667;SDS011;5382;42.136;24.796;2023-04-24T09:29:31;6.32;;;5.47;;
10667;SDS011;5382;42.136;24.796;2023-04-24T09:31:58;9.65;;;5.28;;
10667;SDS011;5382;42.136;24.796;2023-04-24T09:34:26;8.30;;;5.13;;
10667;SDS011;5382;42.136;24.796;2023-04-24T09:36:53;9.32;;;5.75;;
10667;SDS011;5382;42.136;24.796;2023-04-24T09:39:20;12.50;;;7.53;;
10667;SDS011;5382;42.136;24.796;2023-04-24T09:41:49;10.68;;;7.53;;
10667;SDS011;5382;42.136;24.796;2023-04-24T09:44:18;7.40;;;6.53;;
10667;SDS011;5382;42.136;24.796;2023-04-24T09:46:48;7.03;;;5.25;;
10667;SDS011;5382;42.136;24.796;2023-04-24T09:49:20;8.13;;;5.35;;
10667;SDS011;5382;42.136;24.796;2023-04-24T09:51:48;6.00;;;4.45;;
10667;SDS011;5382;42.136;24.796;2023-04-24T09:54:16;7.88;;;4.95;;
10667;SDS011;5382;42.136;24.796;2023-04-24T09:56:45;7.97;;;6.00;;
10667;SDS011;5382;42.136;24.796;2023-04-24T09:59:16;6.93;;;5.50;;
10667;SDS011;5382;42.136;24.796;2023-04-24T10:01:44;5.22;;;4.40;;
10667;SDS011;5382;42.136;24.796;2023-04-24T10:04:18;6.00;;;4.55;;
10667;SDS011;5382;42.136;24.796;2023-04-24T10:06:46;7.00;;;5.60;;
10667;SDS011;5382;42.136;24.796;2023-04-24T10:09:15;10.10;;;5.00;;
10667;SDS011;5382;42.136;24.796;2023-04-24T10:11:42;11.85;;;5.22;;
10667;SDS011;5382;42.136;24.796;2023-04-24T10:14:12;7.35;;;4.63;;
10667;SDS011;5382;42.136;24.796;2023-04-24T10:16:41;7.63;;;5.20;;
10667;SDS011;5382;42.136;24.796;2023-04-24T10:19:09;8.55;;;5.03;;
10667;SDS011;5382;42.136;24.796;2023-04-24T10:21:38;8.88;;;4.47;;
10667;SDS011;5382;42.136;24.796;2023-04-24T10:24:07;6.90;;;5.20;;
10667;SDS011;5382;42.136;24.796;2023-04-24T10:26:35;8.63;;;4.47;;
10667;SDS011;5382;42.136;24.796;2023-04-24T10:29:03;7.93;;;4.88;;
10667;SDS011;5382;42.136;24.796;2023-04-24T10:31:34;7.97;;;4.53;;
10667;SDS011;5382;42.136;24.796;2023-04-24T10:34:04;7.20;;;5.32;;
10667;SDS011;5382;42.136;24.796;2023-04-24T10:36:32;5.93;;;5.10;;
10667;SDS011;5382;42.136;24.796;2023-04-24T10:39:00;5.75;;;4.60;;
10667;SDS011;5382;42.136;24.796;2023-04-24T10:41:29;5.47;;;4.45;;
10667;SDS011;5382;42.136;24.796;2023-04-24T10:44:06;5.20;;;4.45;;
10667;SDS011;5382;42.136;24.796;2023-04-24T10:46:33;6.53;;;4.75;;
10667;SDS011;5382;42.136;24.796;2023-04-24T10:49:04;6.85;;;4.97;;
10667;SDS011;5382;42.136;24.796;2023-04-24T10:51:44;5.70;;;4.68;;
10667;SDS011;5382;42.136;24.796;2023-04-24T10:54:22;7.00;;;4.60;;
10667;SDS011;5382;42.136;24.796;2023-04-24T10:56:50;7.72;;;4.68;;
10667;SDS011;5382;42.136;24.796;2023-04-24T10:59:23;7.47;;;4.35;;
10667;SDS011;5382;42.136;24.796;2023-04-24T11:01:52;6.07;;;4.70;;
10667;SDS011;5382;42.136;24.796;2023-04-24T11:04:30;5.13;;;4.13;;
10667;SDS011;5382;42.136;24.796;2023-04-24T11:06:58;7.03;;;4.10;;
10667;SDS011;5382;42.136;24.796;2023-04-24T11:09:27;5.05;;;4.13;;
10667;SDS011;5382;42.136;24.796;2023-04-24T11:12:02;5.35;;;4.03;;
10667;SDS011;5382;42.136;24.796;2023-04-24T11:14:42;5.53;;;3.83;;
10667;SDS011;5382;42.136;24.796;2023-04-24T11:17:29;5.40;;;3.50;;
10667;SDS011;5382;42.136;24.796;2023-04-24T11:20:02;4.40;;;3.47;;
10667;SDS011;5382;42.136;24.796;2023-04-24T11:22:30;4.63;;;3.70;;
10667;SDS011;5382;42.136;24.796;2023-04-24T11:25:00;6.38;;;3.92;;
10667;SDS011;5382;42.136;24.796;2023-04-24T11:27:29;4.93;;;3.70;;
10667;SDS011;5382;42.136;24.796;2023-04-24T11:30:01;7.55;;;3.95;;
10667;SDS011;5382;42.136;24.796;2023-04-24T11:32:30;5.78;;;4.50;;
10667;SDS011;5382;42.136;24.796;2023-04-24T11:35:03;5.50;;;3.92;;
10667;SDS011;5382;42.136;24.796;2023-04-24T11:37:33;6.10;;;3.50;;
10667;SDS011;5382;42.136;24.796;2023-04-24T11:40:02;8.02;;;3.75;;
10667;SDS011;5382;42.136;24.796;2023-04-24T11:42:33;5.45;;;3.67;;
10667;SDS011;5382;42.136;24.796;2023-04-24T11:45:00;5.25;;;3.60;;
10667;SDS011;5382;42.136;24.796;2023-04-24T11:47:29;5.28;;;3.53;;
10667;SDS011;5382;42.136;24.796;2023-04-24T11:49:58;7.07;;;3.67;;
10667;SDS011;5382;42.136;24.796;2023-04-24T11:52:27;12.70;;;4.82;;
10667;SDS011;5382;42.136;24.796;2023-04-24T11:54:54;4.60;;;3.35;;
10667;SDS011;5382;42.136;24.796;2023-04-24T11:57:21;4.65;;;3.65;;
10667;SDS011;5382;42.136;24.796;2023-04-24T11:59:48;6.57;;;3.10;;
10667;SDS011;5382;42.136;24.796;2023-04-24T12:02:22;15.77;;;4.53;;
10667;SDS011;5382;42.136;24.796;2023-04-24T12:04:49;4.50;;;3.30;;
10667;SDS011;5382;42.136;24.796;2023-04-24T12:07:16;5.00;;;3.17;;
10667;SDS011;5382;42.136;24.796;2023-04-24T12:09:45;4.38;;;3.65;;
10667;SDS011;5382;42.136;24.796;2023-04-24T12:12:13;4.68;;;3.10;;
10667;SDS011;5382;42.136;24.796;2023-04-24T12:17:26;5.97;;;3.40;;
10667;SDS011;5382;42.136;24.796;2023-04-24T12:19:58;7.00;;;3.67;;
10667;SDS011;5382;42.136;24.796;2023-04-24T12:22:27;8.05;;;3.30;;
10667;SDS011;5382;42.136;24.796;2023-04-24T12:24:59;4.30;;;3.25;;
10667;SDS011;5382;42.136;24.796;2023-04-24T12:27:31;5.07;;;3.30;;
10667;SDS011;5382;42.136;24.796;2023-04-24T12:30:02;8.32;;;3.78;;
10667;SDS011;5382;42.136;24.796;2023-04-24T12:32:41;5.13;;;2.90;;
10667;SDS011;5382;42.136;24.796;2023-04-24T12:35:12;4.00;;;2.90;;
10667;SDS011;5382;42.136;24.796;2023-04-24T12:37:41;3.63;;;3.17;;
10667;SDS011;5382;42.136;24.796;2023-04-24T12:40:10;8.27;;;3.25;;
10667;SDS011;5382;42.136;24.796;2023-04-24T12:42:41;3.63;;;3.03;;
10667;SDS011;5382;42.136;24.796;2023-04-24T12:45:09;3.42;;;3.05;;
10667;SDS011;5382;42.136;24.796;2023-04-24T12:47:37;6.10;;;3.53;;
10667;SDS011;5382;42.136;24.796;2023-04-24T12:50:05;5.53;;;3.17;;
10667;SDS011;5382;42.136;24.796;2023-04-24T12:52:34;4.03;;;3.20;;
10667;SDS011;5382;42.136;24.796;2023-04-24T12:55:01;4.80;;;3.03;;
10667;SDS011;5382;42.136;24.796;2023-04-24T12:57:29;5.75;;;3.20;;
10667;SDS011;5382;42.136;24.796;2023-04-24T12:59:57;3.70;;;2.95;;
10667;SDS011;5382;42.136;24.796;2023-04-24T13:02:25;5.30;;;3.42;;
10667;SDS011;5382;42.136;24.796;2023-04-24T13:04:54;6.63;;;2.83;;
10667;SDS011;5382;42.136;24.796;2023-04-24T13:07:21;7.88;;;3.10;;
10667;SDS011;5382;42.136;24.796;2023-04-24T13:09:48;6.65;;;3.28;;
10667;SDS011;5382;42.136;24.796;2023-04-24T13:12:15;5.25;;;3.53;;
10667;SDS011;5382;42.136;24.796;2023-04-24T13:14:44;14.05;;;3.42;;
10667;SDS011;5382;42.136;24.796;2023-04-24T13:17:11;4.30;;;3.50;;
10667;SDS011;5382;42.136;24.796;2023-04-24T13:19:39;5.32;;;3.30;;
10667;SDS011;5382;42.136;24.796;2023-04-24T13:22:08;7.57;;;3.55;;
10667;SDS011;5382;42.136;24.796;2023-04-24T13:24:37;5.60;;;2.90;;
10667;SDS011;5382;42.136;24.796;2023-04-24T13:27:06;6.72;;;3.30;;
10667;SDS011;5382;42.136;24.796;2023-04-24T13:29:33;5.30;;;3.40;;
10667;SDS011;5382;42.136;24.796;2023-04-24T13:32:01;3.55;;;3.22;;
10667;SDS011;5382;42.136;24.796;2023-04-24T13:34:28;5.85;;;3.13;;
10667;SDS011;5382;42.136;24.796;2023-04-24T13:36:55;5.50;;;3.25;;
10667;SDS011;5382;42.136;24.796;2023-04-24T13:39:24;4.60;;;3.17;;
10667;SDS011;5382;42.136;24.796;2023-04-24T13:41:50;3.83;;;3.08;;
10667;SDS011;5382;42.136;24.796;2023-04-24T13:44:18;5.10;;;2.83;;
10667;SDS011;5382;42.136;24.796;2023-04-24T13:46:48;3.42;;;2.75;;
10667;SDS011;5382;42.136;24.796;2023-04-24T13:49:18;4.70;;;2.65;;
10667;SDS011;5382;42.136;24.796;2023-04-24T13:51:45;4.32;;;3.00;;
10667;SDS011;5382;42.136;24.796;2023-04-24T13:54:12;5.38;;;2.70;;
10667;SDS011;5382;42.136;24.796;2023-04-24T13:56:39;3.50;;;2.80;;
10667;SDS011;5382;42.136;24.796;2023-04-24T13:59:06;5.60;;;3.10;;
10667;SDS011;5382;42.136;24.796;2023-04-24T14:01:33;4.05;;;3.10;;
10667;SDS011;5382;42.136;24.796;2023-04-24T14:04:00;4.00;;;2.88;;
10667;SDS011;5382;42.136;24.796;2023-04-24T14:06:28;5.35;;;2.85;;
10667;SDS011;5382;42.136;24.796;2023-04-24T14:08:56;8.40;;;3.28;;
10667;SDS011;5382;42.136;24.796;2023-04-24T14:11:23;5.70;;;3.20;;
10667;SDS011;5382;42.136;24.796;2023-04-24T14:13:50;10.15;;;3.33;;
10667;SDS011;5382;42.136;24.796;2023-04-24T14:16:17;4.35;;;3.08;;
10667;SDS011;5382;42.136;24.796;2023-04-24T14:18:43;4.55;;;3.22;;
10667;SDS011;5382;42.136;24.796;2023-04-24T14:21:10;15.23;;;3.83;;
10667;SDS011;5382;42.136;24.796;2023-04-24T14:23:38;3.90;;;3.25;;
10667;SDS011;5382;42.136;24.796;2023-04-24T14:26:05;4.18;;;2.88;;
10667;SDS011;5382;42.136;24.796;2023-04-24T14:28:32;4.68;;;2.75;;
10667;SDS011;5382;42.136;24.796;2023-04-24T14:30:59;4.80;;;2.75;;
10667;SDS011;5382;42.136;24.796;2023-04-24T14:33:26;4.55;;;3.10;;
10667;SDS011;5382;42.136;24.796;2023-04-24T14:35:52;3.83;;;2.65;;
10667;SDS011;5382;42.136;24.796;2023-04-24T14:38:19;6.18;;;3.15;;
10667;SDS011;5382;42.136;24.796;2023-04-24T14:40:48;2.83;;;2.60;;
10667;SDS011;5382;42.136;24.796;2023-04-24T14:43:15;3.40;;;2.95;;
10667;SDS011;5382;42.136;24.796;2023-04-24T14:45:41;3.80;;;3.08;;
10667;SDS011;5382;42.136;24.796;2023-04-24T14:48:08;5.53;;;2.88;;
10667;SDS011;5382;42.136;24.796;2023-04-24T14:50:36;3.90;;;2.88;;